sensor_id;sensor_type;location;lat;lon;timestamp;temperature;humidity
23873;DHT22;42884;50.718;4.630;2022-12-07T00:01:12;6.30;99.90
23873;DHT22;42884;50.718;4.630;2022-12-07T00:03:38;6.30;99.90
23873;DHT22;42884;50.718;4.630;2022-12-07T00:06:04;6.40;99.90
23873;DHT22;42884;50.718;4.630;2022-12-07T00:08:30;6.40;99.90
23873;DHT22;42884;50.718;4.630;2022-12-07T00:11:00;6.40;99.90
23873;DHT22;42884;50.718;4.630;2022-12-07T00:13:26;6.50;99.90
23873;DHT22;42884;50.718;4.630;2022-12-07T00:15:51;6.50;99.90
23873;DHT22;42884;50.718;4.630;2022-12-07T00:18:17;6.50;99.90
23873;DHT22;42884;50.718;4.630;2022-12-07T00:20:43;6.40;99.90
23873;DHT22;42884;50.718;4.630;2022-12-07T00:23:08;6.20;99.90
23873;DHT22;42884;50.718;4.630;2022-12-07T00:25:34;6.20;99.90
23873;DHT22;42884;50.718;4.630;2022-12-07T00:27:59;6.20;99.90
23873;DHT22;42884;50.718;4.630;2022-12-07T00:30:25;6.20;99.90
23873;DHT22;42884;50.718;4.630;2022-12-07T00:32:50;6.20;99.90
23873;DHT22;42884;50.718;4.630;2022-12-07T00:35:16;6.30;99.90
23873;DHT22;42884;50.718;4.630;2022-12-07T00:37:41;6.30;99.90
23873;DHT22;42884;50.718;4.630;2022-12-07T00:40:07;6.30;99.90
23873;DHT22;42884;50.718;4.630;2022-12-07T00:42:34;6.30;99.90
23873;DHT22;42884;50.718;4.630;2022-12-07T00:45:00;6.30;99.90
23873;DHT22;42884;50.718;4.630;2022-12-07T00:47:25;6.30;99.90
23873;DHT22;42884;50.718;4.630;2022-12-07T00:49:51;6.30;99.90
23873;DHT22;42884;50.718;4.630;2022-12-07T00:52:17;6.10;99.90
23873;DHT22;42884;50.718;4.630;2022-12-07T00:54:42;6.10;99.90
23873;DHT22;42884;50.718;4.630;2022-12-07T00:57:08;6.10;99.90
23873;DHT22;42884;50.718;4.630;2022-12-07T00:59:33;6.10;99.90
23873;DHT22;42884;50.718;4.630;2022-12-07T01:01:59;6.00;99.90
23873;DHT22;42884;50.718;4.630;2022-12-07T01:04:24;6.00;99.90
23873;DHT22;42884;50.718;4.630;2022-12-07T01:06:50;6.10;99.90
23873;DHT22;42884;50.718;4.630;2022-12-07T01:09:16;6.10;99.90
23873;DHT22;42884;50.718;4.630;2022-12-07T01:11:41;6.00;99.90
23873;DHT22;42884;50.718;4.630;2022-12-07T01:14:08;5.90;99.90
23873;DHT22;42884;50.718;4.630;2022-12-07T01:16:34;5.90;99.90
23873;DHT22;42884;50.718;4.630;2022-12-07T01:18:59;5.90;99.90
23873;DHT22;42884;50.718;4.630;2022-12-07T01:21:26;5.90;99.90
23873;DHT22;42884;50.718;4.630;2022-12-07T01:23:52;5.90;99.90
23873;DHT22;42884;50.718;4.630;2022-12-07T01:26:19;5.90;99.90
23873;DHT22;42884;50.718;4.630;2022-12-07T01:28:45;6.00;99.90
23873;DHT22;42884;50.718;4.630;2022-12-07T01:31:12;6.00;99.90
23873;DHT22;42884;50.718;4.630;2022-12-07T01:33:40;5.90;99.90
23873;DHT22;42884;50.718;4.630;2022-12-07T01:38:31;6.20;99.90
23873;DHT22;42884;50.718;4.630;2022-12-07T01:40:57;6.10;99.90
23873;DHT22;42884;50.718;4.630;2022-12-07T01:43:24;6.10;99.90
23873;DHT22;42884;50.718;4.630;2022-12-07T01:45:50;6.10;99.90
23873;DHT22;42884;50.718;4.630;2022-12-07T01:48:17;6.10;99.90
23873;DHT22;42884;50.718;4.630;2022-12-07T01:50:44;6.10;99.90
23873;DHT22;42884;50.718;4.630;2022-12-07T01:53:10;6.00;99.90
23873;DHT22;42884;50.718;4.630;2022-12-07T01:55:37;6.00;99.90
23873;DHT22;42884;50.718;4.630;2022-12-07T01:58:04;6.10;99.90
23873;DHT22;42884;50.718;4.630;2022-12-07T02:00:29;6.20;99.90
23873;DHT22;42884;50.718;4.630;2022-12-07T02:02:57;6.10;99.90
23873;DHT22;42884;50.718;4.630;2022-12-07T02:05:25;6.00;99.90
23873;DHT22;42884;50.718;4.630;2022-12-07T02:07:52;6.10;99.90
23873;DHT22;42884;50.718;4.630;2022-12-07T02:12:44;6.00;99.90
23873;DHT22;42884;50.718;4.630;2022-12-07T02:15:12;6.00;99.90
23873;DHT22;42884;50.718;4.630;2022-12-07T02:17:42;6.10;99.90
23873;DHT22;42884;50.718;4.630;2022-12-07T02:30:50;6.10;99.90
23873;DHT22;42884;50.718;4.630;2022-12-07T02:33:19;6.00;99.90
23873;DHT22;42884;50.718;4.630;2022-12-07T02:40:52;6.10;99.90
23873;DHT22;42884;50.718;4.630;2022-12-07T02:43:23;6.10;99.90
23873;DHT22;42884;50.718;4.630;2022-12-07T02:45:50;6.10;99.90
23873;DHT22;42884;50.718;4.630;2022-12-07T02:48:16;6.10;99.90
23873;DHT22;42884;50.718;4.630;2022-12-07T02:50:48;6.10;99.90
23873;DHT22;42884;50.718;4.630;2022-12-07T02:53:34;6.00;99.90
23873;DHT22;42884;50.718;4.630;2022-12-07T02:56:04;6.10;99.90
23873;DHT22;42884;50.718;4.630;2022-12-07T03:01:05;6.00;99.90
23873;DHT22;42884;50.718;4.630;2022-12-07T03:03:34;6.10;99.90
23873;DHT22;42884;50.718;4.630;2022-12-07T03:11:14;6.20;99.90
23873;DHT22;42884;50.718;4.630;2022-12-07T03:13:44;6.30;99.90
23873;DHT22;42884;50.718;4.630;2022-12-07T03:18:39;6.20;99.90
23873;DHT22;42884;50.718;4.630;2022-12-07T03:21:11;6.30;99.90
23873;DHT22;42884;50.718;4.630;2022-12-07T03:23:37;6.20;99.90
23873;DHT22;42884;50.718;4.630;2022-12-07T03:26:04;6.20;99.90
23873;DHT22;42884;50.718;4.630;2022-12-07T03:28:31;6.20;99.90
23873;DHT22;42884;50.718;4.630;2022-12-07T03:31:00;6.10;99.90
23873;DHT22;42884;50.718;4.630;2022-12-07T03:33:29;6.10;99.90
23873;DHT22;42884;50.718;4.630;2022-12-07T03:36:07;6.10;99.90
23873;DHT22;42884;50.718;4.630;2022-12-07T03:38:41;6.10;99.90
23873;DHT22;42884;50.718;4.630;2022-12-07T03:43:33;5.90;99.90
23873;DHT22;42884;50.718;4.630;2022-12-07T03:46:50;5.90;99.90
23873;DHT22;42884;50.718;4.630;2022-12-07T03:51:21;5.70;99.90
23873;DHT22;42884;50.718;4.630;2022-12-07T03:53:58;5.70;99.90
23873;DHT22;42884;50.718;4.630;2022-12-07T03:56:25;5.60;99.90
23873;DHT22;42884;50.718;4.630;2022-12-07T03:58:52;5.50;99.90
23873;DHT22;42884;50.718;4.630;2022-12-07T04:01:18;5.40;99.90
23873;DHT22;42884;50.718;4.630;2022-12-07T04:03:44;5.30;99.90
23873;DHT22;42884;50.718;4.630;2022-12-07T04:06:10;5.30;99.90
23873;DHT22;42884;50.718;4.630;2022-12-07T04:08:36;5.20;99.90
23873;DHT22;42884;50.718;4.630;2022-12-07T04:11:02;5.20;99.90
23873;DHT22;42884;50.718;4.630;2022-12-07T04:13:27;5.20;99.90
23873;DHT22;42884;50.718;4.630;2022-12-07T04:15:53;5.10;99.90
23873;DHT22;42884;50.718;4.630;2022-12-07T04:18:18;5.10;99.90
23873;DHT22;42884;50.718;4.630;2022-12-07T04:20:45;5.10;99.90
23873;DHT22;42884;50.718;4.630;2022-12-07T04:23:10;5.10;99.90
23873;DHT22;42884;50.718;4.630;2022-12-07T04:25:36;5.20;99.90
23873;DHT22;42884;50.718;4.630;2022-12-07T04:28:02;5.20;99.90
23873;DHT22;42884;50.718;4.630;2022-12-07T04:30:27;5.20;99.90
23873;DHT22;42884;50.718;4.630;2022-12-07T04:32:53;5.30;99.90
23873;DHT22;42884;50.718;4.630;2022-12-07T04:35:19;5.20;99.90
23873;DHT22;42884;50.718;4.630;2022-12-07T04:37:44;5.20;99.90
23873;DHT22;42884;50.718;4.630;2022-12-07T04:40:10;5.00;99.90
23873;DHT22;42884;50.718;4.630;2022-12-07T04:42:36;5.00;99.90
23873;DHT22;42884;50.718;4.630;2022-12-07T04:45:02;4.90;99.90
23873;DHT22;42884;50.718;4.630;2022-12-07T04:47:28;4.70;99.90
23873;DHT22;42884;50.718;4.630;2022-12-07T04:49:53;4.70;99.90
23873;DHT22;42884;50.718;4.630;2022-12-07T04:52:19;4.70;99.90
23873;DHT22;42884;50.718;4.630;2022-12-07T04:54:44;4.70;99.90
23873;DHT22;42884;50.718;4.630;2022-12-07T04:57:10;4.70;99.90
23873;DHT22;42884;50.718;4.630;2022-12-07T04:59:36;4.70;99.90
23873;DHT22;42884;50.718;4.630;2022-12-07T05:02:01;4.70;99.90
23873;DHT22;42884;50.718;4.630;2022-12-07T05:04:27;4.80;99.90
23873;DHT22;42884;50.718;4.630;2022-12-07T05:06:52;4.80;99.90
23873;DHT22;42884;50.718;4.630;2022-12-07T05:09:18;4.90;99.90
23873;DHT22;42884;50.718;4.630;2022-12-07T05:11:43;4.90;99.90
23873;DHT22;42884;50.718;4.630;2022-12-07T05:14:11;4.90;99.90
23873;DHT22;42884;50.718;4.630;2022-12-07T05:16:37;5.00;99.90
23873;DHT22;42884;50.718;4.630;2022-12-07T05:19:03;5.00;99.90
23873;DHT22;42884;50.718;4.630;2022-12-07T05:21:28;5.00;99.90
23873;DHT22;42884;50.718;4.630;2022-12-07T05:23:54;5.00;99.90
23873;DHT22;42884;50.718;4.630;2022-12-07T05:26:19;5.10;99.90
23873;DHT22;42884;50.718;4.630;2022-12-07T05:28:45;5.10;99.90
23873;DHT22;42884;50.718;4.630;2022-12-07T05:31:14;5.20;99.90
23873;DHT22;42884;50.718;4.630;2022-12-07T05:33:40;5.20;99.90
23873;DHT22;42884;50.718;4.630;2022-12-07T05:36:05;5.20;99.90
23873;DHT22;42884;50.718;4.630;2022-12-07T05:38:32;5.20;99.90
23873;DHT22;42884;50.718;4.630;2022-12-07T05:41:04;5.30;99.90
23873;DHT22;42884;50.718;4.630;2022-12-07T05:43:30;5.30;99.90
23873;DHT22;42884;50.718;4.630;2022-12-07T05:45:56;5.30;99.90
23873;DHT22;42884;50.718;4.630;2022-12-07T05:48:22;5.20;99.90
23873;DHT22;42884;50.718;4.630;2022-12-07T05:50:48;5.20;99.90
23873;DHT22;42884;50.718;4.630;2022-12-07T05:53:13;5.30;99.90
23873;DHT22;42884;50.718;4.630;2022-12-07T05:55:39;5.30;99.90
23873;DHT22;42884;50.718;4.630;2022-12-07T05:58:05;5.20;99.90
23873;DHT22;42884;50.718;4.630;2022-12-07T06:00:49;5.20;99.90
23873;DHT22;42884;50.718;4.630;2022-12-07T06:03:14;5.30;99.90
23873;DHT22;42884;50.718;4.630;2022-12-07T06:05:40;5.40;99.90
23873;DHT22;42884;50.718;4.630;2022-12-07T06:08:06;5.40;99.90
23873;DHT22;42884;50.718;4.630;2022-12-07T06:10:32;5.50;99.90
23873;DHT22;42884;50.718;4.630;2022-12-07T06:12:58;5.50;99.90
23873;DHT22;42884;50.718;4.630;2022-12-07T06:15:23;5.60;99.90
23873;DHT22;42884;50.718;4.630;2022-12-07T06:17:49;5.60;99.90
23873;DHT22;42884;50.718;4.630;2022-12-07T06:20:14;5.60;99.90
23873;DHT22;42884;50.718;4.630;2022-12-07T06:22:40;5.70;99.90
23873;DHT22;42884;50.718;4.630;2022-12-07T06:25:06;5.70;99.90
23873;DHT22;42884;50.718;4.630;2022-12-07T06:27:32;5.70;99.90
23873;DHT22;42884;50.718;4.630;2022-12-07T06:29:58;5.70;99.90
23873;DHT22;42884;50.718;4.630;2022-12-07T06:32:24;5.70;99.90
23873;DHT22;42884;50.718;4.630;2022-12-07T06:34:49;5.70;99.90
23873;DHT22;42884;50.718;4.630;2022-12-07T06:37:15;5.80;99.90
23873;DHT22;42884;50.718;4.630;2022-12-07T06:39:41;5.80;99.90
23873;DHT22;42884;50.718;4.630;2022-12-07T06:42:06;5.80;99.90
23873;DHT22;42884;50.718;4.630;2022-12-07T06:44:32;5.80;99.90
23873;DHT22;42884;50.718;4.630;2022-12-07T06:46:58;5.80;99.90
23873;DHT22;42884;50.718;4.630;2022-12-07T06:49:23;5.70;99.90
23873;DHT22;42884;50.718;4.630;2022-12-07T06:51:49;5.80;99.90
23873;DHT22;42884;50.718;4.630;2022-12-07T06:54:15;5.70;99.90
23873;DHT22;42884;50.718;4.630;2022-12-07T06:56:40;5.70;99.90
23873;DHT22;42884;50.718;4.630;2022-12-07T06:59:06;5.70;99.90
23873;DHT22;42884;50.718;4.630;2022-12-07T07:01:33;5.70;99.90
23873;DHT22;42884;50.718;4.630;2022-12-07T07:03:59;5.70;99.90
23873;DHT22;42884;50.718;4.630;2022-12-07T07:06:25;5.70;99.90
23873;DHT22;42884;50.718;4.630;2022-12-07T07:08:50;5.70;99.90
23873;DHT22;42884;50.718;4.630;2022-12-07T07:11:16;5.70;99.90
23873;DHT22;42884;50.718;4.630;2022-12-07T07:13:42;5.70;99.90
23873;DHT22;42884;50.718;4.630;2022-12-07T07:16:08;5.70;99.90
23873;DHT22;42884;50.718;4.630;2022-12-07T07:18:33;5.70;99.90
23873;DHT22;42884;50.718;4.630;2022-12-07T07:20:59;5.70;99.90
23873;DHT22;42884;50.718;4.630;2022-12-07T07:23:25;5.60;99.90
23873;DHT22;42884;50.718;4.630;2022-12-07T07:25:50;5.60;99.90
23873;DHT22;42884;50.718;4.630;2022-12-07T07:28:16;5.50;99.90
23873;DHT22;42884;50.718;4.630;2022-12-07T07:30:42;5.40;99.90
23873;DHT22;42884;50.718;4.630;2022-12-07T07:33:08;5.40;99.90
23873;DHT22;42884;50.718;4.630;2022-12-07T07:35:34;5.40;99.90
23873;DHT22;42884;50.718;4.630;2022-12-07T07:38:00;5.50;99.90
23873;DHT22;42884;50.718;4.630;2022-12-07T07:40:25;5.50;99.90
23873;DHT22;42884;50.718;4.630;2022-12-07T07:42:51;5.40;99.90
23873;DHT22;42884;50.718;4.630;2022-12-07T07:45:17;5.40;99.90
23873;DHT22;42884;50.718;4.630;2022-12-07T07:47:43;5.40;99.90
23873;DHT22;42884;50.718;4.630;2022-12-07T07:50:09;5.40;99.90
23873;DHT22;42884;50.718;4.630;2022-12-07T07:52:34;5.40;99.90
23873;DHT22;42884;50.718;4.630;2022-12-07T07:55:00;5.50;99.90
23873;DHT22;42884;50.718;4.630;2022-12-07T07:57:25;5.50;99.90
23873;DHT22;42884;50.718;4.630;2022-12-07T07:59:52;5.50;99.90
23873;DHT22;42884;50.718;4.630;2022-12-07T08:02:18;5.60;99.90
23873;DHT22;42884;50.718;4.630;2022-12-07T08:04:44;5.60;99.90
23873;DHT22;42884;50.718;4.630;2022-12-07T08:07:10;5.50;99.90
23873;DHT22;42884;50.718;4.630;2022-12-07T08:09:36;5.60;99.90
23873;DHT22;42884;50.718;4.630;2022-12-07T08:12:01;5.70;99.90
23873;DHT22;42884;50.718;4.630;2022-12-07T08:14:27;5.70;99.90
23873;DHT22;42884;50.718;4.630;2022-12-07T08:16:54;5.80;99.90
23873;DHT22;42884;50.718;4.630;2022-12-07T08:19:19;5.80;99.90
23873;DHT22;42884;50.718;4.630;2022-12-07T08:21:45;5.90;99.90
23873;DHT22;42884;50.718;4.630;2022-12-07T08:24:11;5.90;99.90
23873;DHT22;42884;50.718;4.630;2022-12-07T08:26:36;5.90;99.90
23873;DHT22;42884;50.718;4.630;2022-12-07T08:29:02;5.90;99.90
23873;DHT22;42884;50.718;4.630;2022-12-07T08:31:27;5.90;99.90
23873;DHT22;42884;50.718;4.630;2022-12-07T08:33:53;5.90;99.90
23873;DHT22;42884;50.718;4.630;2022-12-07T08:36:19;5.90;99.90
23873;DHT22;42884;50.718;4.630;2022-12-07T08:38:46;5.80;99.90
23873;DHT22;42884;50.718;4.630;2022-12-07T08:41:12;5.70;99.90
23873;DHT22;42884;50.718;4.630;2022-12-07T08:43:38;5.70;99.90
23873;DHT22;42884;50.718;4.630;2022-12-07T08:46:06;5.70;99.90
23873;DHT22;42884;50.718;4.630;2022-12-07T08:48:32;5.60;99.90
23873;DHT22;42884;50.718;4.630;2022-12-07T08:50:58;5.60;99.90
23873;DHT22;42884;50.718;4.630;2022-12-07T08:53:23;5.50;99.90
23873;DHT22;42884;50.718;4.630;2022-12-07T08:55:49;5.50;99.90
23873;DHT22;42884;50.718;4.630;2022-12-07T08:58:15;5.50;99.90
23873;DHT22;42884;50.718;4.630;2022-12-07T09:00:40;5.50;99.90
23873;DHT22;42884;50.718;4.630;2022-12-07T09:03:06;5.60;99.90
23873;DHT22;42884;50.718;4.630;2022-12-07T09:05:32;5.70;99.90
23873;DHT22;42884;50.718;4.630;2022-12-07T09:07:59;5.80;99.90
23873;DHT22;42884;50.718;4.630;2022-12-07T09:10:25;5.90;99.90
23873;DHT22;42884;50.718;4.630;2022-12-07T09:12:51;6.00;99.90
23873;DHT22;42884;50.718;4.630;2022-12-07T09:15:17;6.10;99.90
23873;DHT22;42884;50.718;4.630;2022-12-07T09:17:42;6.30;99.90
23873;DHT22;42884;50.718;4.630;2022-12-07T09:20:08;6.40;99.90
23873;DHT22;42884;50.718;4.630;2022-12-07T09:22:34;6.50;99.90
23873;DHT22;42884;50.718;4.630;2022-12-07T09:25:00;6.50;99.90
23873;DHT22;42884;50.718;4.630;2022-12-07T09:27:26;6.50;99.90
23873;DHT22;42884;50.718;4.630;2022-12-07T09:29:52;6.60;99.90
23873;DHT22;42884;50.718;4.630;2022-12-07T09:32:17;6.60;99.90
23873;DHT22;42884;50.718;4.630;2022-12-07T09:34:43;6.70;99.90
23873;DHT22;42884;50.718;4.630;2022-12-07T09:37:09;6.80;99.90
23873;DHT22;42884;50.718;4.630;2022-12-07T09:39:38;6.90;99.90
23873;DHT22;42884;50.718;4.630;2022-12-07T09:42:04;7.10;99.90
23873;DHT22;42884;50.718;4.630;2022-12-07T09:44:30;7.20;99.90
23873;DHT22;42884;50.718;4.630;2022-12-07T09:46:56;7.10;99.90
23873;DHT22;42884;50.718;4.630;2022-12-07T09:49:23;7.10;99.90
23873;DHT22;42884;50.718;4.630;2022-12-07T09:54:27;7.40;99.90
23873;DHT22;42884;50.718;4.630;2022-12-07T09:56:54;7.60;99.90
23873;DHT22;42884;50.718;4.630;2022-12-07T09:59:19;7.70;99.90
23873;DHT22;42884;50.718;4.630;2022-12-07T10:01:49;7.70;99.90
23873;DHT22;42884;50.718;4.630;2022-12-07T10:06:40;7.80;99.90
23873;DHT22;42884;50.718;4.630;2022-12-07T10:09:10;7.80;99.90
23873;DHT22;42884;50.718;4.630;2022-12-07T10:11:57;7.80;99.90
23873;DHT22;42884;50.718;4.630;2022-12-07T10:14:21;7.80;99.90
23873;DHT22;42884;50.718;4.630;2022-12-07T10:16:47;7.90;99.90
23873;DHT22;42884;50.718;4.630;2022-12-07T10:19:20;7.90;99.90
23873;DHT22;42884;50.718;4.630;2022-12-07T10:21:59;8.00;99.90
23873;DHT22;42884;50.718;4.630;2022-12-07T10:24:25;8.00;99.90
23873;DHT22;42884;50.718;4.630;2022-12-07T10:26:51;8.10;99.90
23873;DHT22;42884;50.718;4.630;2022-12-07T10:31:43;8.10;99.90
23873;DHT22;42884;50.718;4.630;2022-12-07T10:36:49;8.20;99.90
23873;DHT22;42884;50.718;4.630;2022-12-07T10:39:15;8.20;99.90
23873;DHT22;42884;50.718;4.630;2022-12-07T10:41:56;8.30;99.90
23873;DHT22;42884;50.718;4.630;2022-12-07T10:44:23;8.30;99.90
23873;DHT22;42884;50.718;4.630;2022-12-07T10:52:03;8.60;99.90
23873;DHT22;42884;50.718;4.630;2022-12-07T11:02:20;11.00;99.90
23873;DHT22;42884;50.718;4.630;2022-12-07T11:04:58;10.90;99.90
23873;DHT22;42884;50.718;4.630;2022-12-07T11:07:45;10.80;99.90
23873;DHT22;42884;50.718;4.630;2022-12-07T11:10:17;10.70;99.90
23873;DHT22;42884;50.718;4.630;2022-12-07T11:12:50;10.80;99.90
23873;DHT22;42884;50.718;4.630;2022-12-07T11:30:12;10.00;99.90
23873;DHT22;42884;50.718;4.630;2022-12-07T11:35:18;9.90;99.90
23873;DHT22;42884;50.718;4.630;2022-12-07T11:37:45;9.90;99.90
23873;DHT22;42884;50.718;4.630;2022-12-07T11:42:39;10.00;99.90
23873;DHT22;42884;50.718;4.630;2022-12-07T11:52:27;10.50;99.90
23873;DHT22;42884;50.718;4.630;2022-12-07T11:54:55;10.70;99.90
23873;DHT22;42884;50.718;4.630;2022-12-07T11:57:28;11.30;99.90
23873;DHT22;42884;50.718;4.630;2022-12-07T11:59:59;11.90;99.90
23873;DHT22;42884;50.718;4.630;2022-12-07T12:02:27;11.80;99.90
23873;DHT22;42884;50.718;4.630;2022-12-07T12:04:55;11.50;99.90
23873;DHT22;42884;50.718;4.630;2022-12-07T12:07:24;11.60;99.90
23873;DHT22;42884;50.718;4.630;2022-12-07T12:09:54;11.50;99.90
23873;DHT22;42884;50.718;4.630;2022-12-07T12:15:23;11.90;99.90
23873;DHT22;42884;50.718;4.630;2022-12-07T12:17:59;13.30;99.90
23873;DHT22;42884;50.718;4.630;2022-12-07T12:25:44;16.20;99.90
23873;DHT22;42884;50.718;4.630;2022-12-07T12:33:49;17.90;99.90
23873;DHT22;42884;50.718;4.630;2022-12-07T12:38:48;18.30;99.90
23873;DHT22;42884;50.718;4.630;2022-12-07T12:43:59;18.70;99.90
23873;DHT22;42884;50.718;4.630;2022-12-07T12:51:41;16.80;99.90
23873;DHT22;42884;50.718;4.630;2022-12-07T12:54:12;16.10;99.90
23873;DHT22;42884;50.718;4.630;2022-12-07T12:59:41;14.40;99.90
23873;DHT22;42884;50.718;4.630;2022-12-07T13:10:18;11.60;99.90
23873;DHT22;42884;50.718;4.630;2022-12-07T13:12:55;11.40;99.90
23873;DHT22;42884;50.718;4.630;2022-12-07T13:15:31;11.40;99.90
23873;DHT22;42884;50.718;4.630;2022-12-07T13:17:58;11.10;99.90
23873;DHT22;42884;50.718;4.630;2022-12-07T13:23:08;10.70;99.90
23873;DHT22;42884;50.718;4.630;2022-12-07T13:25:38;10.60;99.90
23873;DHT22;42884;50.718;4.630;2022-12-07T13:28:09;10.30;99.90
23873;DHT22;42884;50.718;4.630;2022-12-07T13:30:46;10.10;99.90
23873;DHT22;42884;50.718;4.630;2022-12-07T13:33:12;10.10;99.90
23873;DHT22;42884;50.718;4.630;2022-12-07T13:35:39;10.00;99.90
23873;DHT22;42884;50.718;4.630;2022-12-07T13:41:05;9.80;99.90
23873;DHT22;42884;50.718;4.630;2022-12-07T13:43:45;9.40;99.90
23873;DHT22;42884;50.718;4.630;2022-12-07T13:46:11;9.30;99.90
23873;DHT22;42884;50.718;4.630;2022-12-07T13:48:49;9.30;99.90
23873;DHT22;42884;50.718;4.630;2022-12-07T13:53:47;9.20;99.90
23873;DHT22;42884;50.718;4.630;2022-12-07T13:56:13;9.10;99.90
23873;DHT22;42884;50.718;4.630;2022-12-07T13:58:39;9.00;99.90
23873;DHT22;42884;50.718;4.630;2022-12-07T14:01:05;8.90;99.90
23873;DHT22;42884;50.718;4.630;2022-12-07T14:03:32;8.80;99.90
23873;DHT22;42884;50.718;4.630;2022-12-07T14:06:13;8.70;99.90
23873;DHT22;42884;50.718;4.630;2022-12-07T14:08:39;8.90;99.90
23873;DHT22;42884;50.718;4.630;2022-12-07T14:11:05;9.00;99.90
23873;DHT22;42884;50.718;4.630;2022-12-07T14:13:34;9.10;99.90
23873;DHT22;42884;50.718;4.630;2022-12-07T14:16:24;9.20;99.90
23873;DHT22;42884;50.718;4.630;2022-12-07T14:18:51;9.10;99.90
23873;DHT22;42884;50.718;4.630;2022-12-07T14:21:19;9.10;99.90
23873;DHT22;42884;50.718;4.630;2022-12-07T14:26:44;9.00;99.90
23873;DHT22;42884;50.718;4.630;2022-12-07T14:32:39;8.70;99.90
23873;DHT22;42884;50.718;4.630;2022-12-07T14:34:59;8.70;99.90
23873;DHT22;42884;50.718;4.630;2022-12-07T14:37:26;8.50;99.90
23873;DHT22;42884;50.718;4.630;2022-12-07T14:39:52;8.60;99.90
23873;DHT22;42884;50.718;4.630;2022-12-07T14:42:17;8.70;99.90
23873;DHT22;42884;50.718;4.630;2022-12-07T14:44:43;8.60;99.90
23873;DHT22;42884;50.718;4.630;2022-12-07T14:47:12;8.50;99.90
23873;DHT22;42884;50.718;4.630;2022-12-07T14:49:37;8.60;99.90
23873;DHT22;42884;50.718;4.630;2022-12-07T14:52:03;8.60;99.90
23873;DHT22;42884;50.718;4.630;2022-12-07T14:54:30;8.60;99.90
23873;DHT22;42884;50.718;4.630;2022-12-07T14:56:56;8.50;99.90
23873;DHT22;42884;50.718;4.630;2022-12-07T14:59:22;8.40;99.90
23873;DHT22;42884;50.718;4.630;2022-12-07T15:01:47;8.30;99.90
23873;DHT22;42884;50.718;4.630;2022-12-07T15:04:13;8.30;99.90
23873;DHT22;42884;50.718;4.630;2022-12-07T15:06:39;8.30;99.90
23873;DHT22;42884;50.718;4.630;2022-12-07T15:09:04;8.40;99.90
23873;DHT22;42884;50.718;4.630;2022-12-07T15:11:30;8.40;99.90
23873;DHT22;42884;50.718;4.630;2022-12-07T15:13:55;8.50;99.90
23873;DHT22;42884;50.718;4.630;2022-12-07T15:16:36;8.40;99.90
23873;DHT22;42884;50.718;4.630;2022-12-07T15:19:02;8.40;99.90
23873;DHT22;42884;50.718;4.630;2022-12-07T15:21:27;8.40;99.90
23873;DHT22;42884;50.718;4.630;2022-12-07T15:23:53;8.50;99.90
23873;DHT22;42884;50.718;4.630;2022-12-07T15:26:19;8.50;99.90
23873;DHT22;42884;50.718;4.630;2022-12-07T15:28:44;8.40;99.90
23873;DHT22;42884;50.718;4.630;2022-12-07T15:31:14;8.30;99.90
23873;DHT22;42884;50.718;4.630;2022-12-07T15:33:40;8.20;99.90
23873;DHT22;42884;50.718;4.630;2022-12-07T15:36:06;8.10;99.90
23873;DHT22;42884;50.718;4.630;2022-12-07T15:38:32;7.90;99.90
23873;DHT22;42884;50.718;4.630;2022-12-07T15:40:57;7.80;99.90
23873;DHT22;42884;50.718;4.630;2022-12-07T15:43:26;7.80;99.90
23873;DHT22;42884;50.718;4.630;2022-12-07T15:46:10;7.70;99.90
23873;DHT22;42884;50.718;4.630;2022-12-07T15:48:35;7.60;99.90
23873;DHT22;42884;50.718;4.630;2022-12-07T15:51:02;7.70;99.90
23873;DHT22;42884;50.718;4.630;2022-12-07T15:53:28;7.70;99.90
23873;DHT22;42884;50.718;4.630;2022-12-07T15:55:54;7.60;99.90
23873;DHT22;42884;50.718;4.630;2022-12-07T15:58:19;7.70;99.90
23873;DHT22;42884;50.718;4.630;2022-12-07T16:00:45;7.80;99.90
23873;DHT22;42884;50.718;4.630;2022-12-07T16:03:12;7.80;99.90
23873;DHT22;42884;50.718;4.630;2022-12-07T16:05:37;7.80;99.90
23873;DHT22;42884;50.718;4.630;2022-12-07T16:08:03;7.70;99.90
23873;DHT22;42884;50.718;4.630;2022-12-07T16:10:29;7.70;99.90
23873;DHT22;42884;50.718;4.630;2022-12-07T16:12:54;7.70;99.90
23873;DHT22;42884;50.718;4.630;2022-12-07T16:15:20;7.70;99.90
23873;DHT22;42884;50.718;4.630;2022-12-07T16:17:51;7.70;99.90
23873;DHT22;42884;50.718;4.630;2022-12-07T16:20:16;7.70;99.90
23873;DHT22;42884;50.718;4.630;2022-12-07T16:22:44;7.70;99.90
23873;DHT22;42884;50.718;4.630;2022-12-07T16:25:14;7.70;99.90
23873;DHT22;42884;50.718;4.630;2022-12-07T16:27:40;7.60;99.90
23873;DHT22;42884;50.718;4.630;2022-12-07T16:30:06;7.60;99.90
23873;DHT22;42884;50.718;4.630;2022-12-07T16:32:36;7.50;99.90
23873;DHT22;42884;50.718;4.630;2022-12-07T16:35:01;7.60;99.90
23873;DHT22;42884;50.718;4.630;2022-12-07T16:37:27;7.50;99.90
23873;DHT22;42884;50.718;4.630;2022-12-07T16:39:52;7.50;99.90
23873;DHT22;42884;50.718;4.630;2022-12-07T16:42:18;7.50;99.90
23873;DHT22;42884;50.718;4.630;2022-12-07T16:44:44;7.40;99.90
23873;DHT22;42884;50.718;4.630;2022-12-07T16:47:09;7.30;99.90
23873;DHT22;42884;50.718;4.630;2022-12-07T16:49:35;7.40;99.90
23873;DHT22;42884;50.718;4.630;2022-12-07T16:52:00;7.50;99.90
23873;DHT22;42884;50.718;4.630;2022-12-07T16:54:26;7.50;99.90
23873;DHT22;42884;50.718;4.630;2022-12-07T16:56:56;7.50;99.90
23873;DHT22;42884;50.718;4.630;2022-12-07T16:59:21;7.50;99.90
23873;DHT22;42884;50.718;4.630;2022-12-07T17:01:47;7.30;99.90
23873;DHT22;42884;50.718;4.630;2022-12-07T17:04:14;7.30;99.90
23873;DHT22;42884;50.718;4.630;2022-12-07T17:06:40;7.30;99.90
23873;DHT22;42884;50.718;4.630;2022-12-07T17:09:05;7.30;99.90
23873;DHT22;42884;50.718;4.630;2022-12-07T17:11:34;7.20;99.90
23873;DHT22;42884;50.718;4.630;2022-12-07T17:14:00;7.10;99.90
23873;DHT22;42884;50.718;4.630;2022-12-07T17:16:44;7.10;99.90
23873;DHT22;42884;50.718;4.630;2022-12-07T17:19:11;7.10;99.90
23873;DHT22;42884;50.718;4.630;2022-12-07T17:21:37;7.20;99.90
23873;DHT22;42884;50.718;4.630;2022-12-07T17:24:03;7.10;99.90
23873;DHT22;42884;50.718;4.630;2022-12-07T17:26:29;7.00;99.90
23873;DHT22;42884;50.718;4.630;2022-12-07T17:28:55;7.00;99.90
23873;DHT22;42884;50.718;4.630;2022-12-07T17:31:21;7.10;99.90
23873;DHT22;42884;50.718;4.630;2022-12-07T17:33:47;7.00;99.90
23873;DHT22;42884;50.718;4.630;2022-12-07T17:36:20;7.00;99.90
23873;DHT22;42884;50.718;4.630;2022-12-07T17:38:47;7.00;99.90
23873;DHT22;42884;50.718;4.630;2022-12-07T17:41:15;6.90;99.90
23873;DHT22;42884;50.718;4.630;2022-12-07T17:44:05;7.00;99.90
23873;DHT22;42884;50.718;4.630;2022-12-07T17:46:31;7.00;99.90
23873;DHT22;42884;50.718;4.630;2022-12-07T17:49:00;7.00;99.90
23873;DHT22;42884;50.718;4.630;2022-12-07T17:51:27;7.10;99.90
23873;DHT22;42884;50.718;4.630;2022-12-07T17:54:11;7.00;99.90
23873;DHT22;42884;50.718;4.630;2022-12-07T17:56:36;7.00;99.90
23873;DHT22;42884;50.718;4.630;2022-12-07T17:59:06;7.10;99.90
23873;DHT22;42884;50.718;4.630;2022-12-07T18:01:35;7.10;99.90